createdAt,value
2019-01-05T00:02:37.736Z,2.46
2019-01-05T00:05:39.926Z,2.44
2019-01-05T00:08:35.162Z,2.44
2019-01-05T00:11:28.061Z,2.46
2019-01-05T00:14:21.258Z,2.46
2019-01-05T00:17:22.545Z,2.48
2019-01-05T00:20:19.858Z,2.47
2019-01-05T00:23:21.982Z,2.51
2019-01-05T00:26:06.970Z,2.51
2019-01-05T00:29:07.004Z,2.50
2019-01-05T00:32:00.240Z,2.50
2019-01-05T00:34:57.497Z,2.47
2019-01-05T00:37:57.451Z,2.47
2019-01-05T00:40:46.137Z,2.42
2019-01-05T00:43:38.080Z,2.37
2019-01-05T00:46:26.445Z,2.30
2019-01-05T00:49:24.021Z,2.28
2019-01-05T00:52:24.813Z,2.20
2019-01-05T00:55:24.774Z,2.19
2019-01-05T00:58:12.937Z,2.18
2019-01-05T01:01:17.476Z,2.16
2019-01-05T01:04:10.258Z,2.18
2019-01-05T01:06:58.827Z,2.16
2019-01-05T01:09:48.801Z,2.13
2019-01-05T01:12:36.845Z,2.14
2019-01-05T01:15:35.618Z,2.18
2019-01-05T01:18:36.674Z,2.17
2019-01-05T01:21:29.063Z,2.18
2019-01-05T01:24:16.017Z,2.20
2019-01-05T01:27:08.343Z,2.18
2019-01-05T01:29:57.629Z,2.19
2019-01-05T01:32:46.371Z,2.24
2019-01-05T01:35:38.606Z,2.24
2019-01-05T01:38:40.824Z,2.23
2019-01-05T01:41:46.946Z,2.25
2019-01-05T01:44:36.640Z,2.26
2019-01-05T01:47:26.699Z,2.30
2019-01-05T01:50:34.267Z,2.33
2019-01-05T01:53:44.374Z,2.33
2019-01-05T01:56:37.857Z,2.32
2019-01-05T01:59:38.542Z,2.34
2019-01-05T02:02:22.053Z,2.41
2019-01-05T02:05:25.088Z,2.39
2019-01-05T02:08:14.711Z,2.43
2019-01-05T02:11:14.614Z,2.44
2019-01-05T02:14:13.106Z,2.46
2019-01-05T02:17:14.902Z,2.49
2019-01-05T02:20:25.278Z,2.54
2019-01-05T02:24:00.582Z,2.55
2019-01-05T02:27:17.399Z,2.58
2019-01-05T02:30:49.005Z,2.61
2019-01-05T02:34:28.647Z,2.60
2019-01-05T02:37:45.885Z,2.62
2019-01-05T02:41:22.250Z,2.66
2019-01-05T02:45:06.843Z,2.65
2019-01-05T02:48:40.558Z,2.68
2019-01-05T02:52:09.410Z,2.69
2019-01-05T02:55:36.370Z,2.73
2019-01-05T02:59:35.935Z,2.76
2019-01-05T03:03:04.323Z,2.79
2019-01-05T03:06:30.003Z,2.81
2019-01-05T03:10:18.616Z,2.81
2019-01-05T03:13:27.468Z,2.84
2019-01-05T03:16:53.895Z,2.84
2019-01-05T03:20:17.557Z,2.84
2019-01-05T03:23:58.432Z,2.85
2019-01-05T03:28:04.704Z,2.87
2019-01-05T03:31:45.826Z,2.84
2019-01-05T03:35:25.402Z,2.82
2019-01-05T03:38:51.508Z,2.83
2019-01-05T03:42:36.646Z,2.85
2019-01-05T03:46:18.581Z,2.86
2019-01-05T03:49:34.939Z,2.89
2019-01-05T03:53:05.956Z,2.91
2019-01-05T03:56:39.355Z,2.96
2019-01-05T04:00:20.053Z,2.98
2019-01-05T04:03:59.873Z,2.97
2019-01-05T04:07:22.083Z,3.01
2019-01-05T04:10:58.774Z,3.02
2019-01-05T04:14:23.179Z,3.06
2019-01-05T04:17:51.858Z,3.06
2019-01-05T04:21:26.030Z,3.08
2019-01-05T04:25:03.642Z,3.12
2019-01-05T04:28:59.418Z,3.14
2019-01-05T04:32:30.892Z,3.18
2019-01-05T04:35:49.416Z,3.20
2019-01-05T04:39:39.035Z,3.21
2019-01-05T04:43:04.255Z,3.25
2019-01-05T04:46:22.237Z,3.24
2019-01-05T04:49:36.034Z,3.27
2019-01-05T04:52:47.846Z,3.26
2019-01-05T04:56:40.953Z,3.27
2019-01-05T05:00:12.843Z,3.31
2019-01-05T05:03:37.554Z,3.34
2019-01-05T05:07:00.266Z,3.36
2019-01-05T05:10:55.365Z,3.38
2019-01-05T05:14:37.060Z,3.37
2019-01-05T05:18:09.259Z,3.37
2019-01-05T05:21:47.395Z,3.47
2019-01-05T05:25:30.170Z,3.47
2019-01-05T05:29:11.452Z,3.49
2019-01-05T05:33:23.617Z,3.55
2019-01-05T05:36:39.675Z,3.56
2019-01-05T05:40:16.000Z,3.58
2019-01-05T05:43:34.251Z,3.60
2019-01-05T05:47:07.269Z,3.63
2019-01-05T05:50:38.788Z,3.65
2019-01-05T05:54:29.946Z,3.67
2019-01-05T05:57:45.308Z,3.66
2019-01-05T06:01:18.461Z,3.71
2019-01-05T06:04:45.743Z,3.72
2019-01-05T06:08:09.863Z,3.74
2019-01-05T06:12:01.056Z,3.74
2019-01-05T06:15:21.420Z,3.78
2019-01-05T06:18:47.118Z,3.78
2019-01-05T06:22:26.865Z,3.80
2019-01-05T06:26:01.311Z,3.81
2019-01-05T06:29:19.549Z,3.80
2019-01-05T06:32:42.547Z,3.82
2019-01-05T06:36:12.277Z,3.85
2019-01-05T06:39:49.031Z,3.87
2019-01-05T06:43:14.512Z,3.90
2019-01-05T06:46:47.763Z,3.91
2019-01-05T06:50:22.176Z,3.93
2019-01-05T06:54:05.252Z,3.95
2019-01-05T06:57:35.499Z,3.96
2019-01-05T07:00:58.471Z,4.00
2019-01-05T07:04:39.943Z,4.00
2019-01-05T07:08:12.858Z,4.05
2019-01-05T07:11:55.529Z,4.03
2019-01-05T07:15:36.753Z,4.05
2019-01-05T07:19:25.798Z,4.05
2019-01-05T07:22:57.544Z,4.05
2019-01-05T07:26:42.397Z,4.07
2019-01-05T07:30:25.942Z,4.10
2019-01-05T07:33:42.143Z,4.10
2019-01-05T07:37:07.441Z,4.11
2019-01-05T07:41:04.717Z,4.14
2019-01-05T07:44:32.447Z,4.16
2019-01-05T07:48:00.555Z,4.19
2019-01-05T07:51:40.802Z,4.21
2019-01-05T07:55:14.404Z,4.21
2019-01-05T07:58:51.503Z,4.27
2019-01-05T08:02:16.819Z,4.27
2019-01-05T08:06:03.400Z,4.26
2019-01-05T08:09:34.672Z,4.32
2019-01-05T08:13:14.069Z,4.36
2019-01-05T08:17:12.996Z,4.41
2019-01-05T08:20:53.169Z,4.47
2019-01-05T08:24:36.308Z,4.51
2019-01-05T08:27:57.615Z,4.57
2019-01-05T08:31:53.684Z,4.61
2019-01-05T08:35:25.061Z,4.65
2019-01-05T08:39:21.921Z,4.69
2019-01-05T08:42:49.531Z,4.73
2019-01-05T08:46:13.417Z,4.78
2019-01-05T08:49:43.428Z,4.80
2019-01-05T08:53:46.026Z,4.80
2019-01-05T08:57:19.770Z,4.89
2019-01-05T09:01:05.633Z,4.89
2019-01-05T09:04:37.925Z,4.91
2019-01-05T09:08:17.034Z,4.96
2019-01-05T09:11:48.696Z,4.96
2019-01-05T09:15:18.890Z,4.97
2019-01-05T09:19:04.212Z,5.00
2019-01-05T09:22:46.078Z,5.03
2019-01-05T09:26:05.579Z,5.09
2019-01-05T09:29:35.201Z,5.10
2019-01-05T09:32:52.643Z,5.13
2019-01-05T09:36:23.850Z,5.16
2019-01-05T09:39:52.863Z,5.20
2019-01-05T09:43:16.897Z,5.25
2019-01-05T09:46:40.102Z,5.25
2019-01-05T09:50:11.156Z,5.26
2019-01-05T09:54:13.405Z,5.29
2019-01-05T09:57:54.472Z,5.29
2019-01-05T10:01:07.131Z,5.32
2019-01-05T10:04:47.575Z,5.35
2019-01-05T10:08:09.862Z,5.35
2019-01-05T10:12:00.516Z,5.36
2019-01-05T10:15:36.415Z,5.40
2019-01-05T10:19:17.256Z,5.40
2019-01-05T10:22:47.866Z,5.39
2019-01-05T10:26:15.166Z,5.41
2019-01-05T10:29:47.039Z,5.44
2019-01-05T10:33:22.757Z,5.45
2019-01-05T10:36:44.561Z,5.46
2019-01-05T10:40:00.362Z,5.49
2019-01-05T10:43:50.792Z,5.52
2019-01-05T10:47:32.847Z,5.46
2019-01-05T10:51:08.532Z,5.43
2019-01-05T10:55:13.260Z,5.46
2019-01-05T10:58:46.568Z,5.47
2019-01-05T11:02:20.686Z,5.47
2019-01-05T11:05:40.030Z,5.43
2019-01-05T11:09:16.127Z,5.40
2019-01-05T11:13:03.821Z,5.32
2019-01-05T11:16:22.430Z,5.17
2019-01-05T11:20:11.860Z,5.09
2019-01-05T11:23:56.664Z,4.99
2019-01-05T11:27:21.433Z,4.92
2019-01-05T11:30:45.768Z,4.91
2019-01-05T11:34:13.150Z,5.02
2019-01-05T11:37:57.509Z,5.02
2019-01-05T11:41:29.059Z,5.11
2019-01-05T11:44:49.280Z,5.20
2019-01-05T11:48:23.538Z,5.27
2019-01-05T11:51:49.230Z,5.22
2019-01-05T11:55:26.488Z,5.21
2019-01-05T11:59:25.227Z,5.31
2019-01-05T12:02:41.288Z,5.33
2019-01-05T12:06:40.147Z,5.30
2019-01-05T12:10:15.247Z,5.46
2019-01-05T12:13:38.841Z,5.44
2019-01-05T12:17:10.105Z,5.48
2019-01-05T12:20:46.972Z,5.45
2019-01-05T12:24:43.520Z,5.45
2019-01-05T12:28:15.488Z,5.41
2019-01-05T12:31:55.981Z,5.41
2019-01-05T12:35:50.691Z,5.37
2019-01-05T12:39:28.761Z,5.36
2019-01-05T12:43:22.030Z,5.29
2019-01-05T12:47:08.714Z,5.23
2019-01-05T12:50:49.317Z,5.21
2019-01-05T12:54:40.540Z,5.22
2019-01-05T12:58:08.490Z,5.13
2019-01-05T13:01:42.125Z,5.10
2019-01-05T13:05:03.072Z,5.22
2019-01-05T13:08:50.069Z,5.30
2019-01-05T13:12:52.770Z,5.25
2019-01-05T13:16:30.160Z,5.14
2019-01-05T13:19:58.258Z,5.14
2019-01-05T13:23:31.552Z,5.04
2019-01-05T13:27:11.192Z,5.07
2019-01-05T13:30:40.735Z,4.99
2019-01-05T13:34:09.144Z,5.03
2019-01-05T13:37:23.600Z,4.85
2019-01-05T13:40:48.137Z,4.85
2019-01-05T13:44:23.858Z,4.78
2019-01-05T13:47:47.995Z,4.70
2019-01-05T13:51:15.680Z,4.66
2019-01-05T13:54:14.202Z,4.63
2019-01-05T13:57:08.759Z,4.60
2019-01-05T13:59:58.381Z,4.65
2019-01-05T14:03:05.927Z,4.60
2019-01-05T14:06:08.696Z,4.54
2019-01-05T14:08:56.718Z,4.52
2019-01-05T14:11:49.101Z,4.46
2019-01-05T14:14:36.942Z,4.49
2019-01-05T14:17:40.231Z,4.48
2019-01-05T14:20:28.686Z,4.40
2019-01-05T14:23:17.086Z,4.41
2019-01-05T14:26:15.585Z,4.40
2019-01-05T14:29:13.937Z,4.40
2019-01-05T14:32:03.316Z,4.39
2019-01-05T14:35:01.532Z,4.38
2019-01-05T14:37:49.603Z,4.38
2019-01-05T14:40:44.849Z,4.37
2019-01-05T14:43:32.742Z,4.33
2019-01-05T14:46:28.491Z,4.34
2019-01-05T14:49:23.590Z,4.28
2019-01-05T14:52:11.615Z,4.26
2019-01-05T14:55:06.884Z,4.19
2019-01-05T14:58:14.809Z,4.18
2019-01-05T15:01:16.458Z,4.06
2019-01-05T15:04:04.195Z,4.06
2019-01-05T15:06:53.610Z,4.02
2019-01-05T15:09:42.945Z,3.96
2019-01-05T15:12:31.110Z,3.93
2019-01-05T15:15:28.857Z,3.93
2019-01-05T15:18:30.455Z,3.87
2019-01-05T15:21:18.207Z,3.84
2019-01-05T15:24:01.564Z,3.88
2019-01-05T15:26:49.251Z,3.85
2019-01-05T15:29:49.477Z,3.82
2019-01-05T15:32:38.988Z,3.96
2019-01-05T15:35:26.990Z,3.92
2019-01-05T15:38:15.212Z,3.92
2019-01-05T15:41:05.311Z,3.85
2019-01-05T15:43:55.779Z,3.89
2019-01-05T15:46:46.093Z,3.92
2019-01-05T15:49:34.482Z,3.94
2019-01-05T15:52:23.634Z,3.93
2019-01-05T15:55:21.577Z,3.94
2019-01-05T15:58:09.707Z,3.94
2019-01-05T16:01:17.854Z,4.01
2019-01-05T16:04:10.350Z,4.01
2019-01-05T16:06:58.350Z,4.04
2019-01-05T16:09:50.320Z,4.88
2019-01-05T16:12:38.459Z,6.06
2019-01-05T16:15:25.995Z,5.22
2019-01-05T16:18:15.212Z,4.80
2019-01-05T16:21:06.201Z,4.55
2019-01-05T16:23:54.080Z,4.47
2019-01-05T16:26:42.082Z,4.36
2019-01-05T16:29:32.849Z,4.34
2019-01-05T16:32:30.939Z,4.30
2019-01-05T16:35:29.584Z,4.29
2019-01-05T16:38:30.741Z,4.29
2019-01-05T16:41:20.901Z,4.26
2019-01-05T16:44:23.701Z,4.23
2019-01-05T16:47:12.461Z,4.22
2019-01-05T16:50:00.258Z,4.19
2019-01-05T16:52:47.881Z,4.19
2019-01-05T16:55:53.650Z,4.21
2019-01-05T16:58:48.857Z,4.23
2019-01-05T17:01:36.799Z,4.24
2019-01-05T17:04:38.588Z,4.27
2019-01-05T17:07:36.388Z,4.27
2019-01-05T17:10:25.699Z,4.30
2019-01-05T17:13:21.290Z,4.30
2019-01-05T17:16:26.257Z,4.28
2019-01-05T17:19:11.232Z,4.27
2019-01-05T17:21:59.891Z,4.28
2019-01-05T17:24:49.320Z,4.24
2019-01-05T17:27:37.118Z,4.23
2019-01-05T17:30:25.178Z,4.25
2019-01-05T17:33:23.625Z,4.27
2019-01-05T17:36:13.101Z,4.30
2019-01-05T17:39:00.750Z,4.29
2019-01-05T17:42:02.480Z,4.29
2019-01-05T17:44:51.781Z,4.28
2019-01-05T17:47:39.756Z,4.28
2019-01-05T17:50:27.865Z,4.28
2019-01-05T17:53:19.612Z,4.29
2019-01-05T17:56:07.355Z,4.29
2019-01-05T17:58:54.992Z,4.25
2019-01-05T18:01:48.869Z,4.21
2019-01-05T18:04:38.962Z,4.23
2019-01-05T18:07:27.270Z,4.18
2019-01-05T18:10:16.385Z,4.16
2019-01-05T18:13:17.616Z,4.12
2019-01-05T18:16:21.903Z,4.08
2019-01-05T18:19:11.581Z,4.04
2019-01-05T18:22:07.058Z,4.02
2019-01-05T18:24:55.248Z,3.99
2019-01-05T18:27:51.521Z,3.92
2019-01-05T18:30:40.209Z,3.87
2019-01-05T18:33:38.358Z,3.77
2019-01-05T18:36:35.479Z,3.79
2019-01-05T18:39:34.305Z,3.81
2019-01-05T18:42:29.437Z,3.82
2019-01-05T18:45:24.969Z,3.81
2019-01-05T18:48:13.046Z,3.81
2019-01-05T18:51:00.701Z,3.81
2019-01-05T18:53:53.044Z,3.84
2019-01-05T18:56:34.615Z,3.83
2019-01-05T18:59:26.902Z,3.81
2019-01-05T19:02:28.662Z,3.83
2019-01-05T19:05:17.104Z,3.82
2019-01-05T19:08:18.277Z,3.86
2019-01-05T19:11:16.705Z,3.80
2019-01-05T19:14:04.696Z,3.75
2019-01-05T19:17:06.096Z,3.70
2019-01-05T19:19:54.185Z,3.70
2019-01-05T19:22:49.617Z,3.72
2019-01-05T19:25:38.270Z,3.70
2019-01-05T19:28:29.265Z,3.66
2019-01-05T19:31:26.791Z,3.65
2019-01-05T19:34:15.281Z,3.65
2019-01-05T19:37:09.180Z,3.62
2019-01-05T19:39:58.159Z,3.59
2019-01-05T19:42:47.159Z,3.61
2019-01-05T19:45:36.709Z,3.55
2019-01-05T19:48:26.170Z,3.56
2019-01-05T19:51:14.587Z,3.57
2019-01-05T19:54:03.007Z,3.62
2019-01-05T19:56:58.435Z,3.64
2019-01-05T19:59:54.168Z,3.58
2019-01-05T20:02:43.800Z,3.58
2019-01-05T20:05:45.231Z,3.53
2019-01-05T20:08:32.964Z,3.53
2019-01-05T20:11:25.156Z,3.54
2019-01-05T20:14:23.679Z,3.61
2019-01-05T20:17:16.297Z,3.61
2019-01-05T20:20:11.885Z,3.53
2019-01-05T20:23:10.366Z,3.42
2019-01-05T20:25:57.066Z,3.42
2019-01-05T20:28:46.075Z,3.37
2019-01-05T20:31:41.887Z,3.36
2019-01-05T20:34:31.392Z,3.37
2019-01-05T20:37:19.506Z,3.36
2019-01-05T20:40:08.263Z,3.30
2019-01-05T20:43:08.693Z,3.29
2019-01-05T20:46:00.698Z,3.29
2019-01-05T20:48:53.823Z,3.28
2019-01-05T20:51:42.369Z,3.30
2019-01-05T20:54:36.731Z,3.30
2019-01-05T20:57:24.500Z,3.33
2019-01-05T21:00:25.806Z,3.28
2019-01-05T21:03:04.798Z,3.20
2019-01-05T21:05:54.300Z,3.21
2019-01-05T21:08:55.041Z,3.13
2019-01-05T21:11:47.608Z,3.05
2019-01-05T21:14:35.150Z,2.97
2019-01-05T21:17:18.519Z,2.97
2019-01-05T21:20:21.743Z,2.98
2019-01-05T21:23:19.158Z,2.99
2019-01-05T21:26:06.751Z,2.88
2019-01-05T21:28:56.083Z,2.86
2019-01-05T21:31:45.510Z,2.80
2019-01-05T21:34:46.959Z,2.78
2019-01-05T21:37:38.495Z,2.76
2019-01-05T21:40:26.834Z,2.78
2019-01-05T21:43:25.207Z,2.79
2019-01-05T21:46:13.053Z,2.84
2019-01-05T21:49:00.933Z,2.75
2019-01-05T21:51:56.128Z,2.73
2019-01-05T21:54:42.004Z,2.78
2019-01-05T21:57:30.469Z,2.75
2019-01-05T22:00:19.615Z,2.72
2019-01-05T22:03:07.260Z,2.79
2019-01-05T22:05:59.191Z,2.74
2019-01-05T22:08:43.403Z,2.81
2019-01-05T22:11:51.064Z,3.26
2019-01-05T22:14:43.076Z,4.15
2019-01-05T22:17:44.449Z,3.64
2019-01-05T22:20:36.495Z,3.17
2019-01-05T22:23:28.206Z,2.97
2019-01-05T22:26:18.337Z,2.97
2019-01-05T22:29:21.737Z,2.69
2019-01-05T22:32:10.245Z,2.64
2019-01-05T22:35:09.458Z,2.65
2019-01-05T22:38:01.617Z,2.70
2019-01-05T22:40:49.128Z,2.62
2019-01-05T22:43:37.164Z,2.60
2019-01-05T22:46:35.817Z,2.50
2019-01-05T22:49:24.740Z,2.54
2019-01-05T22:52:17.435Z,2.56
2019-01-05T22:55:05.555Z,2.48
2019-01-05T22:57:53.374Z,2.50
2019-01-05T23:00:41.071Z,2.48
2019-01-05T23:03:33.360Z,2.41
2019-01-05T23:06:29.348Z,2.41
2019-01-05T23:09:18.277Z,2.44
2019-01-05T23:12:02.309Z,2.39
2019-01-05T23:14:51.588Z,2.40
2019-01-05T23:17:39.343Z,2.43
2019-01-05T23:20:28.715Z,2.45
2019-01-05T23:23:17.247Z,2.48
2019-01-05T23:26:05.443Z,2.53
2019-01-05T23:28:55.676Z,2.57
2019-01-05T23:31:43.801Z,2.55
2019-01-05T23:34:36.178Z,2.62
2019-01-05T23:37:43.788Z,2.56
2019-01-05T23:40:51.725Z,2.57
2019-01-05T23:43:30.353Z,2.48
2019-01-05T23:46:31.769Z,2.36
2019-01-05T23:49:29.910Z,2.21
2019-01-05T23:52:18.083Z,2.21
2019-01-05T23:55:06.322Z,2.24
2019-01-05T23:58:01.453Z,2.26
